sensor_id;sensor_type;location;lat;lon;timestamp;P1;durP1;ratioP1;P2;durP2;ratioP2
78871;SDS011;68247;43.514;1.502;2023-06-22T00:01:08;11.30;;;5.25;;
78871;SDS011;68247;43.514;1.502;2023-06-22T00:03:34;9.47;;;4.90;;
78871;SDS011;68247;43.514;1.502;2023-06-22T00:05:59;11.83;;;4.93;;
78871;SDS011;68247;43.514;1.502;2023-06-22T00:08:24;10.80;;;4.67;;
78871;SDS011;68247;43.514;1.502;2023-06-22T00:10:50;10.17;;;4.93;;
78871;SDS011;68247;43.514;1.502;2023-06-22T00:13:16;9.30;;;5.28;;
78871;SDS011;68247;43.514;1.502;2023-06-22T00:15:42;10.47;;;5.57;;
78871;SDS011;68247;43.514;1.502;2023-06-22T00:18:08;10.10;;;4.88;;
78871;SDS011;68247;43.514;1.502;2023-06-22T00:20:34;10.05;;;5.43;;
78871;SDS011;68247;43.514;1.502;2023-06-22T00:23:02;16.58;;;6.68;;
78871;SDS011;68247;43.514;1.502;2023-06-22T00:25:33;13.37;;;5.77;;
78871;SDS011;68247;43.514;1.502;2023-06-22T00:28:05;13.52;;;5.75;;
78871;SDS011;68247;43.514;1.502;2023-06-22T00:30:31;12.50;;;5.60;;
78871;SDS011;68247;43.514;1.502;2023-06-22T00:32:57;12.32;;;5.53;;
78871;SDS011;68247;43.514;1.502;2023-06-22T00:35:23;13.67;;;5.80;;
78871;SDS011;68247;43.514;1.502;2023-06-22T00:37:53;11.02;;;5.97;;
78871;SDS011;68247;43.514;1.502;2023-06-22T00:40:25;10.88;;;5.70;;
78871;SDS011;68247;43.514;1.502;2023-06-22T00:42:51;12.65;;;5.68;;
78871;SDS011;68247;43.514;1.502;2023-06-22T00:45:16;9.17;;;4.50;;
78871;SDS011;68247;43.514;1.502;2023-06-22T00:47:42;11.03;;;4.80;;
78871;SDS011;68247;43.514;1.502;2023-06-22T00:50:08;10.95;;;5.10;;
78871;SDS011;68247;43.514;1.502;2023-06-22T00:52:37;8.20;;;5.25;;
78871;SDS011;68247;43.514;1.502;2023-06-22T00:55:08;12.30;;;5.25;;
78871;SDS011;68247;43.514;1.502;2023-06-22T00:57:34;13.33;;;5.70;;
78871;SDS011;68247;43.514;1.502;2023-06-22T01:00:02;10.68;;;5.10;;
78871;SDS011;68247;43.514;1.502;2023-06-22T01:02:36;10.90;;;5.25;;
78871;SDS011;68247;43.514;1.502;2023-06-22T01:05:03;11.38;;;5.43;;
78871;SDS011;68247;43.514;1.502;2023-06-22T01:12:52;11.23;;;5.07;;
78871;SDS011;68247;43.514;1.502;2023-06-22T01:17:52;11.70;;;4.85;;
78871;SDS011;68247;43.514;1.502;2023-06-22T01:20:18;9.73;;;4.63;;
78871;SDS011;68247;43.514;1.502;2023-06-22T01:25:57;10.50;;;4.70;;
78871;SDS011;68247;43.514;1.502;2023-06-22T01:31:19;9.23;;;4.25;;
78871;SDS011;68247;43.514;1.502;2023-06-22T01:33:49;8.77;;;3.90;;
78871;SDS011;68247;43.514;1.502;2023-06-22T01:36:19;7.32;;;2.95;;
78871;SDS011;68247;43.514;1.502;2023-06-22T01:38:45;8.35;;;3.35;;
78871;SDS011;68247;43.514;1.502;2023-06-22T01:41:12;6.00;;;2.53;;
78871;SDS011;68247;43.514;1.502;2023-06-22T01:43:37;4.17;;;1.90;;
78871;SDS011;68247;43.514;1.502;2023-06-22T01:46:03;7.93;;;2.45;;
78871;SDS011;68247;43.514;1.502;2023-06-22T01:48:29;7.03;;;2.20;;
78871;SDS011;68247;43.514;1.502;2023-06-22T01:50:55;5.72;;;1.80;;
78871;SDS011;68247;43.514;1.502;2023-06-22T01:53:21;4.10;;;1.73;;
78871;SDS011;68247;43.514;1.502;2023-06-22T01:55:47;5.30;;;1.90;;
78871;SDS011;68247;43.514;1.502;2023-06-22T01:58:13;8.10;;;1.85;;
78871;SDS011;68247;43.514;1.502;2023-06-22T02:00:38;7.37;;;2.03;;
78871;SDS011;68247;43.514;1.502;2023-06-22T02:03:10;7.93;;;2.05;;
78871;SDS011;68247;43.514;1.502;2023-06-22T02:05:38;7.20;;;2.45;;
78871;SDS011;68247;43.514;1.502;2023-06-22T02:08:08;4.88;;;2.15;;
78871;SDS011;68247;43.514;1.502;2023-06-22T02:10:36;6.17;;;1.63;;
78871;SDS011;68247;43.514;1.502;2023-06-22T02:13:05;7.07;;;2.05;;
78871;SDS011;68247;43.514;1.502;2023-06-22T02:15:32;5.97;;;1.98;;
78871;SDS011;68247;43.514;1.502;2023-06-22T02:17:57;6.63;;;2.13;;
78871;SDS011;68247;43.514;1.502;2023-06-22T02:20:23;8.17;;;2.33;;
78871;SDS011;68247;43.514;1.502;2023-06-22T02:22:49;6.53;;;2.10;;
78871;SDS011;68247;43.514;1.502;2023-06-22T02:25:14;5.00;;;1.90;;
78871;SDS011;68247;43.514;1.502;2023-06-22T02:27:39;5.50;;;1.90;;
78871;SDS011;68247;43.514;1.502;2023-06-22T02:30:06;5.00;;;1.83;;
78871;SDS011;68247;43.514;1.502;2023-06-22T02:32:35;7.60;;;2.00;;
78871;SDS011;68247;43.514;1.502;2023-06-22T02:35:01;5.50;;;1.80;;
78871;SDS011;68247;43.514;1.502;2023-06-22T02:37:29;4.83;;;1.60;;
78871;SDS011;68247;43.514;1.502;2023-06-22T02:39:55;7.07;;;1.63;;
78871;SDS011;68247;43.514;1.502;2023-06-22T02:42:21;6.17;;;1.87;;
78871;SDS011;68247;43.514;1.502;2023-06-22T02:44:46;7.07;;;1.73;;
78871;SDS011;68247;43.514;1.502;2023-06-22T02:47:12;5.27;;;1.70;;
78871;SDS011;68247;43.514;1.502;2023-06-22T02:49:38;4.38;;;1.70;;
78871;SDS011;68247;43.514;1.502;2023-06-22T02:52:03;6.77;;;1.93;;
78871;SDS011;68247;43.514;1.502;2023-06-22T02:54:29;5.67;;;1.70;;
78871;SDS011;68247;43.514;1.502;2023-06-22T02:56:54;6.53;;;2.35;;
78871;SDS011;68247;43.514;1.502;2023-06-22T02:59:19;7.90;;;2.40;;
78871;SDS011;68247;43.514;1.502;2023-06-22T03:01:48;5.63;;;2.45;;
78871;SDS011;68247;43.514;1.502;2023-06-22T03:04:17;6.83;;;2.30;;
78871;SDS011;68247;43.514;1.502;2023-06-22T03:06:43;5.30;;;2.30;;
78871;SDS011;68247;43.514;1.502;2023-06-22T03:09:08;6.33;;;2.43;;
78871;SDS011;68247;43.514;1.502;2023-06-22T03:11:34;8.32;;;2.08;;
78871;SDS011;68247;43.514;1.502;2023-06-22T03:14:00;6.03;;;1.90;;
78871;SDS011;68247;43.514;1.502;2023-06-22T03:16:26;6.35;;;2.45;;
78871;SDS011;68247;43.514;1.502;2023-06-22T03:18:51;7.37;;;2.40;;
78871;SDS011;68247;43.514;1.502;2023-06-22T03:21:18;7.97;;;2.38;;
78871;SDS011;68247;43.514;1.502;2023-06-22T03:23:44;11.73;;;2.10;;
78871;SDS011;68247;43.514;1.502;2023-06-22T03:26:10;7.20;;;2.47;;
78871;SDS011;68247;43.514;1.502;2023-06-22T03:28:35;6.60;;;2.35;;
78871;SDS011;68247;43.514;1.502;2023-06-22T03:31:02;6.87;;;2.43;;
78871;SDS011;68247;43.514;1.502;2023-06-22T03:33:28;8.80;;;2.53;;
78871;SDS011;68247;43.514;1.502;2023-06-22T03:35:54;6.82;;;2.60;;
78871;SDS011;68247;43.514;1.502;2023-06-22T03:38:20;8.27;;;2.90;;
78871;SDS011;68247;43.514;1.502;2023-06-22T03:40:45;9.43;;;2.67;;
78871;SDS011;68247;43.514;1.502;2023-06-22T03:43:11;9.73;;;3.20;;
78871;SDS011;68247;43.514;1.502;2023-06-22T03:45:36;8.43;;;3.07;;
78871;SDS011;68247;43.514;1.502;2023-06-22T03:48:02;11.32;;;3.70;;
78871;SDS011;68247;43.514;1.502;2023-06-22T03:50:28;9.00;;;3.73;;
78871;SDS011;68247;43.514;1.502;2023-06-22T03:52:53;8.63;;;3.35;;
78871;SDS011;68247;43.514;1.502;2023-06-22T03:55:21;9.37;;;3.63;;
78871;SDS011;68247;43.514;1.502;2023-06-22T03:57:47;10.52;;;4.43;;
78871;SDS011;68247;43.514;1.502;2023-06-22T04:00:13;11.80;;;3.77;;
78871;SDS011;68247;43.514;1.502;2023-06-22T04:02:40;8.77;;;4.00;;
78871;SDS011;68247;43.514;1.502;2023-06-22T04:05:06;7.70;;;3.70;;
78871;SDS011;68247;43.514;1.502;2023-06-22T04:07:33;12.27;;;4.43;;
78871;SDS011;68247;43.514;1.502;2023-06-22T04:09:58;12.13;;;4.37;;
78871;SDS011;68247;43.514;1.502;2023-06-22T04:12:24;7.23;;;3.43;;
78871;SDS011;68247;43.514;1.502;2023-06-22T04:14:49;10.03;;;4.33;;
78871;SDS011;68247;43.514;1.502;2023-06-22T04:17:15;8.40;;;4.00;;
78871;SDS011;68247;43.514;1.502;2023-06-22T04:19:40;10.82;;;4.07;;
78871;SDS011;68247;43.514;1.502;2023-06-22T04:22:06;9.90;;;4.57;;
78871;SDS011;68247;43.514;1.502;2023-06-22T04:24:32;12.23;;;4.20;;
78871;SDS011;68247;43.514;1.502;2023-06-22T04:26:58;10.20;;;4.25;;
78871;SDS011;68247;43.514;1.502;2023-06-22T04:29:28;10.77;;;4.20;;
78871;SDS011;68247;43.514;1.502;2023-06-22T04:31:55;8.40;;;4.20;;
78871;SDS011;68247;43.514;1.502;2023-06-22T04:34:23;9.65;;;4.35;;
78871;SDS011;68247;43.514;1.502;2023-06-22T04:36:51;10.50;;;4.13;;
78871;SDS011;68247;43.514;1.502;2023-06-22T04:39:16;8.20;;;4.50;;
78871;SDS011;68247;43.514;1.502;2023-06-22T04:41:42;9.07;;;4.73;;
78871;SDS011;68247;43.514;1.502;2023-06-22T04:44:11;9.82;;;4.32;;
78871;SDS011;68247;43.514;1.502;2023-06-22T04:46:37;8.57;;;3.90;;
78871;SDS011;68247;43.514;1.502;2023-06-22T04:49:12;9.37;;;4.13;;
78871;SDS011;68247;43.514;1.502;2023-06-22T04:51:39;10.93;;;4.88;;
78871;SDS011;68247;43.514;1.502;2023-06-22T04:54:06;8.50;;;4.50;;
78871;SDS011;68247;43.514;1.502;2023-06-22T04:56:32;30.70;;;5.47;;
78871;SDS011;68247;43.514;1.502;2023-06-22T04:58:57;10.97;;;4.83;;
78871;SDS011;68247;43.514;1.502;2023-06-22T05:01:23;10.18;;;4.85;;
78871;SDS011;68247;43.514;1.502;2023-06-22T05:03:49;9.83;;;5.63;;
78871;SDS011;68247;43.514;1.502;2023-06-22T05:06:15;13.88;;;5.60;;
78871;SDS011;68247;43.514;1.502;2023-06-22T05:08:40;11.00;;;6.03;;
78871;SDS011;68247;43.514;1.502;2023-06-22T05:11:06;11.68;;;6.13;;
78871;SDS011;68247;43.514;1.502;2023-06-22T05:13:31;10.10;;;5.73;;
78871;SDS011;68247;43.514;1.502;2023-06-22T05:15:57;13.05;;;6.70;;
78871;SDS011;68247;43.514;1.502;2023-06-22T05:18:29;11.97;;;6.23;;
78871;SDS011;68247;43.514;1.502;2023-06-22T05:20:55;13.27;;;7.50;;
78871;SDS011;68247;43.514;1.502;2023-06-22T05:23:22;12.60;;;6.68;;
78871;SDS011;68247;43.514;1.502;2023-06-22T05:25:47;16.67;;;7.20;;
78871;SDS011;68247;43.514;1.502;2023-06-22T05:28:12;14.40;;;7.30;;
78871;SDS011;68247;43.514;1.502;2023-06-22T05:30:38;10.88;;;7.25;;
78871;SDS011;68247;43.514;1.502;2023-06-22T05:33:04;13.60;;;7.18;;
78871;SDS011;68247;43.514;1.502;2023-06-22T05:35:29;13.07;;;7.37;;
78871;SDS011;68247;43.514;1.502;2023-06-22T05:37:55;12.80;;;7.20;;
78871;SDS011;68247;43.514;1.502;2023-06-22T05:40:20;15.27;;;7.23;;
78871;SDS011;68247;43.514;1.502;2023-06-22T05:42:46;15.70;;;7.45;;
78871;SDS011;68247;43.514;1.502;2023-06-22T05:45:12;13.95;;;7.80;;
78871;SDS011;68247;43.514;1.502;2023-06-22T05:47:38;13.93;;;7.10;;
78871;SDS011;68247;43.514;1.502;2023-06-22T05:50:03;15.87;;;7.67;;
78871;SDS011;68247;43.514;1.502;2023-06-22T05:52:31;13.93;;;7.55;;
78871;SDS011;68247;43.514;1.502;2023-06-22T05:54:57;12.20;;;7.47;;
78871;SDS011;68247;43.514;1.502;2023-06-22T05:57:23;13.67;;;6.97;;
78871;SDS011;68247;43.514;1.502;2023-06-22T05:59:48;16.47;;;6.67;;
78871;SDS011;68247;43.514;1.502;2023-06-22T06:02:13;21.67;;;8.23;;
78871;SDS011;68247;43.514;1.502;2023-06-22T06:04:39;14.57;;;7.10;;
78871;SDS011;68247;43.514;1.502;2023-06-22T06:07:04;16.33;;;7.77;;
78871;SDS011;68247;43.514;1.502;2023-06-22T06:09:30;13.00;;;7.17;;
78871;SDS011;68247;43.514;1.502;2023-06-22T06:11:55;14.47;;;6.83;;
78871;SDS011;68247;43.514;1.502;2023-06-22T06:14:21;12.25;;;7.68;;
78871;SDS011;68247;43.514;1.502;2023-06-22T06:16:47;12.33;;;7.90;;
78871;SDS011;68247;43.514;1.502;2023-06-22T06:19:13;14.93;;;7.63;;
78871;SDS011;68247;43.514;1.502;2023-06-22T06:21:39;12.80;;;7.57;;
78871;SDS011;68247;43.514;1.502;2023-06-22T06:24:04;15.50;;;7.43;;
78871;SDS011;68247;43.514;1.502;2023-06-22T06:26:30;14.77;;;7.13;;
78871;SDS011;68247;43.514;1.502;2023-06-22T06:28:58;12.43;;;7.07;;
78871;SDS011;68247;43.514;1.502;2023-06-22T06:31:25;13.27;;;7.10;;
78871;SDS011;68247;43.514;1.502;2023-06-22T06:33:53;14.07;;;7.22;;
78871;SDS011;68247;43.514;1.502;2023-06-22T06:36:19;11.23;;;7.20;;
78871;SDS011;68247;43.514;1.502;2023-06-22T06:38:44;12.20;;;7.10;;
78871;SDS011;68247;43.514;1.502;2023-06-22T06:41:12;14.63;;;6.75;;
78871;SDS011;68247;43.514;1.502;2023-06-22T06:43:38;16.00;;;7.53;;
78871;SDS011;68247;43.514;1.502;2023-06-22T06:46:03;12.23;;;6.90;;
78871;SDS011;68247;43.514;1.502;2023-06-22T06:48:29;13.87;;;6.80;;
78871;SDS011;68247;43.514;1.502;2023-06-22T06:50:54;10.33;;;6.73;;
78871;SDS011;68247;43.514;1.502;2023-06-22T06:53:19;14.00;;;6.67;;
78871;SDS011;68247;43.514;1.502;2023-06-22T06:55:45;10.80;;;6.72;;
78871;SDS011;68247;43.514;1.502;2023-06-22T06:58:10;14.40;;;6.97;;
78871;SDS011;68247;43.514;1.502;2023-06-22T07:00:38;11.55;;;6.80;;
78871;SDS011;68247;43.514;1.502;2023-06-22T07:03:04;13.03;;;6.60;;
78871;SDS011;68247;43.514;1.502;2023-06-22T07:05:29;10.02;;;6.47;;
78871;SDS011;68247;43.514;1.502;2023-06-22T07:07:55;11.97;;;5.97;;
78871;SDS011;68247;43.514;1.502;2023-06-22T07:10:20;14.07;;;6.13;;
78871;SDS011;68247;43.514;1.502;2023-06-22T07:12:46;9.30;;;6.25;;
78871;SDS011;68247;43.514;1.502;2023-06-22T07:15:11;10.07;;;5.80;;
78871;SDS011;68247;43.514;1.502;2023-06-22T07:17:37;13.55;;;6.00;;
78871;SDS011;68247;43.514;1.502;2023-06-22T07:20:06;10.60;;;6.20;;
78871;SDS011;68247;43.514;1.502;2023-06-22T07:22:36;8.95;;;5.38;;
78871;SDS011;68247;43.514;1.502;2023-06-22T07:25:02;8.63;;;5.47;;
78871;SDS011;68247;43.514;1.502;2023-06-22T07:27:34;8.38;;;4.95;;
78871;SDS011;68247;43.514;1.502;2023-06-22T07:30:10;9.15;;;5.32;;
78871;SDS011;68247;43.514;1.502;2023-06-22T07:32:36;8.50;;;4.77;;
78871;SDS011;68247;43.514;1.502;2023-06-22T07:35:02;9.02;;;4.65;;
78871;SDS011;68247;43.514;1.502;2023-06-22T07:37:28;11.52;;;4.47;;
78871;SDS011;68247;43.514;1.502;2023-06-22T07:39:54;11.60;;;4.53;;
78871;SDS011;68247;43.514;1.502;2023-06-22T07:42:24;8.83;;;4.17;;
78871;SDS011;68247;43.514;1.502;2023-06-22T07:44:50;7.45;;;4.28;;
78871;SDS011;68247;43.514;1.502;2023-06-22T07:47:16;6.05;;;3.35;;
78871;SDS011;68247;43.514;1.502;2023-06-22T07:49:43;5.63;;;3.55;;
78871;SDS011;68247;43.514;1.502;2023-06-22T07:52:08;6.33;;;3.23;;
78871;SDS011;68247;43.514;1.502;2023-06-22T07:54:34;7.67;;;3.30;;
78871;SDS011;68247;43.514;1.502;2023-06-22T07:56:59;6.20;;;3.40;;
78871;SDS011;68247;43.514;1.502;2023-06-22T07:59:25;5.57;;;2.97;;
78871;SDS011;68247;43.514;1.502;2023-06-22T08:01:50;7.70;;;3.20;;
78871;SDS011;68247;43.514;1.502;2023-06-22T08:04:16;9.60;;;3.10;;
78871;SDS011;68247;43.514;1.502;2023-06-22T08:06:41;5.70;;;3.10;;
78871;SDS011;68247;43.514;1.502;2023-06-22T08:09:06;6.00;;;2.80;;
78871;SDS011;68247;43.514;1.502;2023-06-22T08:11:32;6.30;;;2.67;;
78871;SDS011;68247;43.514;1.502;2023-06-22T08:13:57;4.80;;;2.53;;
78871;SDS011;68247;43.514;1.502;2023-06-22T08:16:23;4.35;;;2.42;;
78871;SDS011;68247;43.514;1.502;2023-06-22T08:18:49;4.40;;;2.20;;
78871;SDS011;68247;43.514;1.502;2023-06-22T08:21:14;5.40;;;2.50;;
78871;SDS011;68247;43.514;1.502;2023-06-22T08:23:40;5.20;;;2.87;;
78871;SDS011;68247;43.514;1.502;2023-06-22T08:26:05;5.28;;;2.45;;
78871;SDS011;68247;43.514;1.502;2023-06-22T08:28:31;5.00;;;2.50;;
78871;SDS011;68247;43.514;1.502;2023-06-22T08:30:57;6.93;;;2.70;;
78871;SDS011;68247;43.514;1.502;2023-06-22T08:33:22;4.80;;;2.70;;
78871;SDS011;68247;43.514;1.502;2023-06-22T08:35:54;5.15;;;2.55;;
78871;SDS011;68247;43.514;1.502;2023-06-22T08:38:20;5.17;;;2.30;;
78871;SDS011;68247;43.514;1.502;2023-06-22T08:40:45;5.25;;;2.80;;
78871;SDS011;68247;43.514;1.502;2023-06-22T08:43:11;5.97;;;2.50;;
78871;SDS011;68247;43.514;1.502;2023-06-22T08:45:36;5.53;;;3.00;;
78871;SDS011;68247;43.514;1.502;2023-06-22T08:48:02;6.10;;;3.07;;
78871;SDS011;68247;43.514;1.502;2023-06-22T08:50:27;6.25;;;2.78;;
78871;SDS011;68247;43.514;1.502;2023-06-22T08:52:53;6.20;;;2.47;;
78871;SDS011;68247;43.514;1.502;2023-06-22T08:55:18;5.77;;;2.70;;
78871;SDS011;68247;43.514;1.502;2023-06-22T08:57:44;5.80;;;3.33;;
78871;SDS011;68247;43.514;1.502;2023-06-22T09:00:09;4.93;;;2.78;;
78871;SDS011;68247;43.514;1.502;2023-06-22T09:02:48;6.90;;;2.80;;
78871;SDS011;68247;43.514;1.502;2023-06-22T09:05:14;6.13;;;3.08;;
78871;SDS011;68247;43.514;1.502;2023-06-22T09:07:40;6.18;;;3.33;;
78871;SDS011;68247;43.514;1.502;2023-06-22T09:10:05;7.05;;;3.42;;
78871;SDS011;68247;43.514;1.502;2023-06-22T09:12:31;7.13;;;3.40;;
78871;SDS011;68247;43.514;1.502;2023-06-22T09:14:58;7.43;;;3.90;;
78871;SDS011;68247;43.514;1.502;2023-06-22T09:17:25;5.40;;;3.53;;
78871;SDS011;68247;43.514;1.502;2023-06-22T09:19:50;8.43;;;4.00;;
78871;SDS011;68247;43.514;1.502;2023-06-22T09:22:16;7.78;;;3.38;;
78871;SDS011;68247;43.514;1.502;2023-06-22T09:24:41;7.30;;;3.90;;
78871;SDS011;68247;43.514;1.502;2023-06-22T09:27:07;6.33;;;3.80;;
78871;SDS011;68247;43.514;1.502;2023-06-22T09:29:32;6.60;;;3.70;;
78871;SDS011;68247;43.514;1.502;2023-06-22T09:32:00;6.15;;;3.58;;
78871;SDS011;68247;43.514;1.502;2023-06-22T09:34:26;6.13;;;3.17;;
78871;SDS011;68247;43.514;1.502;2023-06-22T09:36:52;7.03;;;3.50;;
78871;SDS011;68247;43.514;1.502;2023-06-22T09:39:18;6.27;;;3.50;;
78871;SDS011;68247;43.514;1.502;2023-06-22T09:41:43;8.23;;;3.70;;
78871;SDS011;68247;43.514;1.502;2023-06-22T09:44:09;5.50;;;3.37;;
78871;SDS011;68247;43.514;1.502;2023-06-22T09:46:34;6.90;;;3.30;;
78871;SDS011;68247;43.514;1.502;2023-06-22T09:49:00;6.77;;;3.50;;
78871;SDS011;68247;43.514;1.502;2023-06-22T09:51:25;4.57;;;2.83;;
78871;SDS011;68247;43.514;1.502;2023-06-22T09:53:51;5.28;;;2.88;;
78871;SDS011;68247;43.514;1.502;2023-06-22T09:56:18;5.57;;;3.35;;
78871;SDS011;68247;43.514;1.502;2023-06-22T09:58:44;6.17;;;3.80;;
78871;SDS011;68247;43.514;1.502;2023-06-22T10:01:11;7.97;;;4.10;;
78871;SDS011;68247;43.514;1.502;2023-06-22T10:03:37;7.17;;;3.20;;
78871;SDS011;68247;43.514;1.502;2023-06-22T10:06:02;5.00;;;2.90;;
78871;SDS011;68247;43.514;1.502;2023-06-22T10:08:28;6.25;;;2.92;;
78871;SDS011;68247;43.514;1.502;2023-06-22T10:10:54;5.97;;;3.43;;
78871;SDS011;68247;43.514;1.502;2023-06-22T10:13:19;6.40;;;2.92;;
78871;SDS011;68247;43.514;1.502;2023-06-22T10:15:45;6.93;;;3.10;;
78871;SDS011;68247;43.514;1.502;2023-06-22T10:18:16;6.43;;;2.90;;
78871;SDS011;68247;43.514;1.502;2023-06-22T10:20:42;8.00;;;3.00;;
78871;SDS011;68247;43.514;1.502;2023-06-22T10:23:08;7.07;;;3.00;;
78871;SDS011;68247;43.514;1.502;2023-06-22T10:25:33;5.77;;;3.30;;
78871;SDS011;68247;43.514;1.502;2023-06-22T10:27:58;4.97;;;3.17;;
78871;SDS011;68247;43.514;1.502;2023-06-22T10:30:24;5.57;;;2.80;;
78871;SDS011;68247;43.514;1.502;2023-06-22T10:32:50;5.70;;;3.53;;
78871;SDS011;68247;43.514;1.502;2023-06-22T10:35:15;5.68;;;3.30;;
78871;SDS011;68247;43.514;1.502;2023-06-22T10:37:42;6.93;;;2.97;;
78871;SDS011;68247;43.514;1.502;2023-06-22T10:40:08;6.28;;;3.30;;
78871;SDS011;68247;43.514;1.502;2023-06-22T10:42:34;6.25;;;3.58;;
78871;SDS011;68247;43.514;1.502;2023-06-22T10:44:59;4.83;;;3.30;;
78871;SDS011;68247;43.514;1.502;2023-06-22T10:47:25;5.33;;;2.90;;
78871;SDS011;68247;43.514;1.502;2023-06-22T10:49:50;5.03;;;2.80;;
78871;SDS011;68247;43.514;1.502;2023-06-22T10:52:15;5.67;;;3.10;;
78871;SDS011;68247;43.514;1.502;2023-06-22T10:54:41;6.68;;;3.30;;
78871;SDS011;68247;43.514;1.502;2023-06-22T10:57:06;5.17;;;3.17;;
78871;SDS011;68247;43.514;1.502;2023-06-22T10:59:32;5.63;;;3.30;;
78871;SDS011;68247;43.514;1.502;2023-06-22T11:01:58;5.80;;;3.27;;
78871;SDS011;68247;43.514;1.502;2023-06-22T11:04:23;5.85;;;3.25;;
78871;SDS011;68247;43.514;1.502;2023-06-22T11:06:49;4.80;;;2.80;;
78871;SDS011;68247;43.514;1.502;2023-06-22T11:09:15;5.67;;;3.10;;
78871;SDS011;68247;43.514;1.502;2023-06-22T11:11:50;4.88;;;3.20;;
78871;SDS011;68247;43.514;1.502;2023-06-22T11:14:18;6.03;;;3.65;;
78871;SDS011;68247;43.514;1.502;2023-06-22T11:16:44;6.20;;;3.38;;
78871;SDS011;68247;43.514;1.502;2023-06-22T11:19:11;6.20;;;3.20;;
78871;SDS011;68247;43.514;1.502;2023-06-22T11:21:36;7.20;;;3.75;;
78871;SDS011;68247;43.514;1.502;2023-06-22T11:24:02;6.10;;;3.17;;
78871;SDS011;68247;43.514;1.502;2023-06-22T11:26:27;5.93;;;3.30;;
78871;SDS011;68247;43.514;1.502;2023-06-22T11:28:53;6.32;;;3.22;;
78871;SDS011;68247;43.514;1.502;2023-06-22T11:31:19;7.57;;;3.40;;
78871;SDS011;68247;43.514;1.502;2023-06-22T11:33:44;5.70;;;3.47;;
78871;SDS011;68247;43.514;1.502;2023-06-22T11:36:11;4.77;;;2.90;;
78871;SDS011;68247;43.514;1.502;2023-06-22T11:38:37;5.10;;;2.75;;
78871;SDS011;68247;43.514;1.502;2023-06-22T11:41:04;5.00;;;3.08;;
78871;SDS011;68247;43.514;1.502;2023-06-22T11:43:30;6.85;;;3.72;;
78871;SDS011;68247;43.514;1.502;2023-06-22T11:45:56;5.23;;;3.27;;
78871;SDS011;68247;43.514;1.502;2023-06-22T11:48:23;5.60;;;3.70;;
78871;SDS011;68247;43.514;1.502;2023-06-22T11:50:49;26.15;;;4.70;;
78871;SDS011;68247;43.514;1.502;2023-06-22T11:53:15;7.17;;;4.70;;
78871;SDS011;68247;43.514;1.502;2023-06-22T11:55:46;6.97;;;4.32;;
78871;SDS011;68247;43.514;1.502;2023-06-22T11:58:11;7.68;;;4.65;;
78871;SDS011;68247;43.514;1.502;2023-06-22T12:00:37;9.20;;;5.53;;
78871;SDS011;68247;43.514;1.502;2023-06-22T12:03:02;6.87;;;4.53;;
78871;SDS011;68247;43.514;1.502;2023-06-22T12:05:28;6.47;;;4.23;;
78871;SDS011;68247;43.514;1.502;2023-06-22T12:07:53;7.00;;;3.63;;
78871;SDS011;68247;43.514;1.502;2023-06-22T12:10:19;4.97;;;3.53;;
78871;SDS011;68247;43.514;1.502;2023-06-22T12:12:45;7.10;;;3.20;;
78871;SDS011;68247;43.514;1.502;2023-06-22T12:15:11;5.27;;;3.50;;
78871;SDS011;68247;43.514;1.502;2023-06-22T12:17:36;7.68;;;4.05;;
78871;SDS011;68247;43.514;1.502;2023-06-22T12:20:02;5.93;;;3.27;;
78871;SDS011;68247;43.514;1.502;2023-06-22T12:22:30;6.55;;;3.40;;
78871;SDS011;68247;43.514;1.502;2023-06-22T12:24:59;5.10;;;3.23;;
78871;SDS011;68247;43.514;1.502;2023-06-22T12:27:25;6.70;;;3.58;;
78871;SDS011;68247;43.514;1.502;2023-06-22T12:29:51;5.23;;;3.30;;
78871;SDS011;68247;43.514;1.502;2023-06-22T12:32:16;5.63;;;3.50;;
78871;SDS011;68247;43.514;1.502;2023-06-22T12:34:42;5.43;;;3.17;;
78871;SDS011;68247;43.514;1.502;2023-06-22T12:37:08;5.03;;;2.60;;
78871;SDS011;68247;43.514;1.502;2023-06-22T12:39:33;5.07;;;2.73;;
78871;SDS011;68247;43.514;1.502;2023-06-22T12:41:59;5.88;;;3.00;;
78871;SDS011;68247;43.514;1.502;2023-06-22T12:44:24;5.47;;;2.87;;
78871;SDS011;68247;43.514;1.502;2023-06-22T12:46:49;5.57;;;3.10;;
78871;SDS011;68247;43.514;1.502;2023-06-22T12:49:15;6.87;;;3.50;;
78871;SDS011;68247;43.514;1.502;2023-06-22T12:51:41;5.83;;;2.90;;
78871;SDS011;68247;43.514;1.502;2023-06-22T12:54:10;5.03;;;3.05;;
78871;SDS011;68247;43.514;1.502;2023-06-22T12:56:36;5.15;;;3.17;;
78871;SDS011;68247;43.514;1.502;2023-06-22T12:59:02;4.65;;;2.90;;
78871;SDS011;68247;43.514;1.502;2023-06-22T13:01:29;5.10;;;3.03;;
78871;SDS011;68247;43.514;1.502;2023-06-22T13:03:55;5.83;;;2.90;;
78871;SDS011;68247;43.514;1.502;2023-06-22T13:06:21;4.75;;;2.90;;
78871;SDS011;68247;43.514;1.502;2023-06-22T13:08:46;6.77;;;2.93;;
78871;SDS011;68247;43.514;1.502;2023-06-22T13:11:12;4.93;;;3.03;;
78871;SDS011;68247;43.514;1.502;2023-06-22T13:13:38;5.27;;;2.90;;
78871;SDS011;68247;43.514;1.502;2023-06-22T13:16:04;5.53;;;2.70;;
78871;SDS011;68247;43.514;1.502;2023-06-22T13:18:29;5.93;;;3.20;;
78871;SDS011;68247;43.514;1.502;2023-06-22T13:20:54;5.13;;;2.90;;
78871;SDS011;68247;43.514;1.502;2023-06-22T13:23:20;5.27;;;3.37;;
78871;SDS011;68247;43.514;1.502;2023-06-22T13:25:46;7.97;;;3.58;;
78871;SDS011;68247;43.514;1.502;2023-06-22T13:28:12;8.43;;;4.05;;
78871;SDS011;68247;43.514;1.502;2023-06-22T13:30:39;7.65;;;3.63;;
78871;SDS011;68247;43.514;1.502;2023-06-22T13:33:05;6.18;;;4.00;;
78871;SDS011;68247;43.514;1.502;2023-06-22T13:35:31;5.27;;;3.63;;
78871;SDS011;68247;43.514;1.502;2023-06-22T13:37:56;4.90;;;3.13;;
78871;SDS011;68247;43.514;1.502;2023-06-22T13:40:21;5.97;;;3.37;;
78871;SDS011;68247;43.514;1.502;2023-06-22T13:42:47;7.90;;;3.17;;
78871;SDS011;68247;43.514;1.502;2023-06-22T13:45:12;5.27;;;3.17;;
78871;SDS011;68247;43.514;1.502;2023-06-22T13:47:38;5.07;;;3.10;;
78871;SDS011;68247;43.514;1.502;2023-06-22T13:50:03;4.93;;;3.17;;
78871;SDS011;68247;43.514;1.502;2023-06-22T13:52:29;4.82;;;2.83;;
78871;SDS011;68247;43.514;1.502;2023-06-22T13:54:54;5.83;;;3.13;;
78871;SDS011;68247;43.514;1.502;2023-06-22T13:57:20;6.20;;;2.90;;
78871;SDS011;68247;43.514;1.502;2023-06-22T13:59:45;4.95;;;3.35;;
78871;SDS011;68247;43.514;1.502;2023-06-22T14:02:11;4.53;;;3.10;;
78871;SDS011;68247;43.514;1.502;2023-06-22T14:04:36;6.67;;;3.40;;
78871;SDS011;68247;43.514;1.502;2023-06-22T14:07:02;5.53;;;3.47;;
78871;SDS011;68247;43.514;1.502;2023-06-22T14:09:27;5.90;;;3.80;;
78871;SDS011;68247;43.514;1.502;2023-06-22T14:11:54;8.07;;;3.53;;
78871;SDS011;68247;43.514;1.502;2023-06-22T14:14:20;7.38;;;3.42;;
78871;SDS011;68247;43.514;1.502;2023-06-22T14:16:46;5.87;;;3.43;;
78871;SDS011;68247;43.514;1.502;2023-06-22T14:19:11;6.17;;;3.70;;
78871;SDS011;68247;43.514;1.502;2023-06-22T14:21:36;7.37;;;4.40;;
78871;SDS011;68247;43.514;1.502;2023-06-22T14:24:02;6.00;;;3.72;;
78871;SDS011;68247;43.514;1.502;2023-06-22T14:26:27;6.70;;;3.60;;
78871;SDS011;68247;43.514;1.502;2023-06-22T14:28:53;6.43;;;4.00;;
78871;SDS011;68247;43.514;1.502;2023-06-22T14:31:18;6.37;;;3.40;;
78871;SDS011;68247;43.514;1.502;2023-06-22T14:33:47;6.10;;;4.30;;
78871;SDS011;68247;43.514;1.502;2023-06-22T14:36:14;6.20;;;4.07;;
78871;SDS011;68247;43.514;1.502;2023-06-22T14:38:42;7.28;;;4.00;;
78871;SDS011;68247;43.514;1.502;2023-06-22T14:41:08;6.43;;;4.00;;
78871;SDS011;68247;43.514;1.502;2023-06-22T14:43:33;7.53;;;4.20;;
78871;SDS011;68247;43.514;1.502;2023-06-22T14:45:59;5.88;;;3.90;;
78871;SDS011;68247;43.514;1.502;2023-06-22T14:48:25;7.77;;;4.60;;
78871;SDS011;68247;43.514;1.502;2023-06-22T14:50:51;7.70;;;4.00;;